createdAt,value
2023-05-01T00:01:33.052Z,97851.25
2023-05-01T00:03:59.887Z,97853.84
2023-05-01T00:06:28.095Z,97851.44
2023-05-01T00:08:54.855Z,97836.59
2023-05-01T00:11:21.513Z,97846.22
2023-05-01T00:13:48.226Z,97840.84
2023-05-01T00:16:16.900Z,97845.16
2023-05-01T00:18:44.044Z,97837.41
2023-05-01T00:21:10.697Z,97827.91
2023-05-01T00:23:37.420Z,97829.28
2023-05-01T00:26:04.230Z,97834.16
2023-05-01T00:28:30.920Z,97826.44
2023-05-01T00:30:57.864Z,97832.25
2023-05-01T00:33:24.534Z,97826.53
2023-05-01T00:35:52.808Z,97823.78
2023-05-01T00:38:19.478Z,97825.56
2023-05-01T00:40:46.853Z,97825.31
2023-05-01T00:43:13.839Z,97821.41
2023-05-01T00:45:45.399Z,97826.38
2023-05-01T00:48:12.155Z,97817.63
2023-05-01T00:50:39.395Z,97813.69
2023-05-01T00:53:06.591Z,97821.59
2023-05-01T00:55:33.853Z,97826.56
2023-05-01T00:58:01.869Z,97817.41
2023-05-01T01:00:29.625Z,97820.13
2023-05-01T01:02:56.573Z,97815.16
2023-05-01T01:05:28.309Z,97824.78
2023-05-01T01:08:11.129Z,97820.88
2023-05-01T01:10:53.457Z,97818.69
2023-05-01T01:13:32.432Z,97827.25
2023-05-01T01:16:19.099Z,97815.88
2023-05-01T01:18:56.510Z,97809.22
2023-05-01T01:21:32.340Z,97818.91
2023-05-01T01:24:11.166Z,97816.16
2023-05-01T01:27:02.658Z,97809.88
2023-05-01T01:30:12.170Z,97811.81
2023-05-01T01:32:56.485Z,97812.47
2023-05-01T01:35:27.659Z,97805.28
2023-05-01T01:38:03.521Z,97813.78
2023-05-01T01:40:38.262Z,97820.66
2023-05-01T01:43:10.637Z,97821.97
2023-05-01T01:45:42.223Z,97814.56
2023-05-01T01:48:14.365Z,97815.91
2023-05-01T01:50:42.394Z,97818.94
2023-05-01T01:53:11.764Z,97812.38
2023-05-01T01:55:41.368Z,97817.94
2023-05-01T01:58:10.684Z,97810.00
2023-05-01T02:00:39.268Z,97808.22
2023-05-01T02:03:06.626Z,97808.41
2023-05-01T02:05:36.369Z,97818.50
2023-05-01T02:08:05.457Z,97817.16
2023-05-01T02:10:33.912Z,97813.97
2023-05-01T02:13:03.238Z,97816.56
2023-05-01T02:15:31.410Z,97808.72
2023-05-01T02:17:59.606Z,97820.31
2023-05-01T02:20:26.923Z,97811.34
2023-05-01T02:22:54.193Z,97805.31
2023-05-01T02:25:21.284Z,97806.13
2023-05-01T02:27:55.719Z,97807.81
2023-05-01T02:30:22.484Z,97810.53
2023-05-01T02:32:49.293Z,97799.44
2023-05-01T02:35:17.112Z,97803.84
2023-05-01T02:37:44.964Z,97799.25
2023-05-01T02:40:15.101Z,97798.13
2023-05-01T02:42:48.077Z,97792.59
2023-05-01T02:45:20.882Z,97792.16
2023-05-01T02:47:51.877Z,97787.91
2023-05-01T02:50:19.701Z,97787.59
2023-05-01T02:52:47.304Z,97793.13
2023-05-01T02:55:50.637Z,97799.78
2023-05-01T02:58:21.034Z,97797.16
2023-05-01T03:00:51.036Z,97795.44
2023-05-01T03:03:19.338Z,97789.72
2023-05-01T03:05:46.073Z,97793.78
2023-05-01T03:08:12.830Z,97796.91
2023-05-01T03:10:42.641Z,97796.38
2023-05-01T03:13:10.885Z,97792.53
2023-05-01T03:15:38.456Z,97792.53
2023-05-01T03:18:05.389Z,97800.06
2023-05-01T03:20:32.263Z,97790.03
2023-05-01T03:22:59.379Z,97798.50
2023-05-01T03:25:26.341Z,97797.81
2023-05-01T03:27:54.936Z,97795.75
2023-05-01T03:30:22.716Z,97799.59
2023-05-01T03:32:51.735Z,97801.69
2023-05-01T03:35:24.769Z,97793.16
2023-05-01T03:37:51.814Z,97797.31
2023-05-01T03:40:41.013Z,97802.31
2023-05-01T03:43:26.175Z,97802.66
2023-05-01T03:45:54.539Z,97807.25
2023-05-01T03:48:21.517Z,97801.56
2023-05-01T03:50:48.168Z,97803.25
2023-05-01T03:53:16.523Z,97802.94
2023-05-01T03:55:44.020Z,97797.88
2023-05-01T03:58:12.763Z,97797.97
2023-05-01T04:00:39.579Z,97798.19
2023-05-01T04:03:06.507Z,97799.66
2023-05-01T04:05:36.094Z,97799.50
2023-05-01T04:08:04.417Z,97795.28
2023-05-01T04:10:31.137Z,97799.06
2023-05-01T04:13:02.693Z,97799.66
2023-05-01T04:15:29.366Z,97801.22
2023-05-01T04:17:56.935Z,97804.13
2023-05-01T04:20:24.132Z,97790.91
2023-05-01T04:22:50.846Z,97791.28
2023-05-01T04:25:17.818Z,97788.44
2023-05-01T04:27:47.206Z,97787.03
2023-05-01T04:30:15.128Z,97793.94
2023-05-01T04:32:41.828Z,97795.13
2023-05-01T04:35:09.605Z,97802.25
2023-05-01T04:37:37.559Z,97801.03
2023-05-01T04:40:05.037Z,97803.53
2023-05-01T04:42:32.325Z,97802.44
2023-05-01T04:45:02.708Z,97807.22
2023-05-01T04:47:32.626Z,97813.63
2023-05-01T04:49:59.495Z,97822.28
2023-05-01T04:52:26.625Z,97817.63
2023-05-01T04:54:58.000Z,97819.31
2023-05-01T04:57:27.108Z,97823.81
2023-05-01T04:59:53.906Z,97818.03
2023-05-01T05:02:20.884Z,97831.00
2023-05-01T05:04:47.594Z,97835.63
2023-05-01T05:07:14.246Z,97843.25
2023-05-01T05:09:59.503Z,97840.88
2023-05-01T05:12:26.391Z,97831.09
2023-05-01T05:14:53.357Z,97840.38
2023-05-01T05:17:20.116Z,97841.41
2023-05-01T05:19:46.962Z,97844.34
2023-05-01T05:22:13.634Z,97845.31
2023-05-01T05:25:04.412Z,97844.59
2023-05-01T05:27:36.396Z,97845.03
2023-05-01T05:30:07.672Z,97851.00
2023-05-01T05:32:35.685Z,97847.16
2023-05-01T05:35:03.126Z,97841.78
2023-05-01T05:37:30.162Z,97849.53
2023-05-01T05:39:57.684Z,97851.72
2023-05-01T05:42:25.006Z,97846.63
2023-05-01T05:44:53.070Z,97850.69
2023-05-01T05:47:20.219Z,97849.66
2023-05-01T05:49:46.925Z,97848.38
2023-05-01T05:52:13.711Z,97840.13
2023-05-01T05:54:40.618Z,97842.59
2023-05-01T05:57:07.342Z,97837.25
2023-05-01T05:59:36.479Z,97840.91
2023-05-01T06:02:03.725Z,97844.97
2023-05-01T06:04:30.691Z,97840.44
2023-05-01T06:06:57.928Z,97834.53
2023-05-01T06:09:25.160Z,97831.88
2023-05-01T06:11:51.946Z,97838.03
2023-05-01T06:14:19.150Z,97832.00
2023-05-01T06:16:46.367Z,97834.47
2023-05-01T06:19:13.124Z,97834.13
2023-05-01T06:21:41.240Z,97827.84
2023-05-01T06:24:09.946Z,97830.59
2023-05-01T06:26:45.482Z,97819.03
2023-05-01T06:29:12.821Z,97825.53
2023-05-01T06:31:39.600Z,97827.72
2023-05-01T06:34:06.309Z,97820.13
2023-05-01T06:36:53.085Z,97819.50
2023-05-01T06:39:19.876Z,97815.31
2023-05-01T06:41:47.625Z,97819.09
2023-05-01T06:44:15.748Z,97821.63
2023-05-01T06:46:42.707Z,97814.50
2023-05-01T06:49:09.433Z,97811.75
2023-05-01T06:51:36.756Z,97816.22
2023-05-01T06:54:03.718Z,97821.28
2023-05-01T06:56:32.298Z,97825.06
2023-05-01T06:58:58.975Z,97823.44
2023-05-01T07:01:25.979Z,97822.84
2023-05-01T07:03:52.737Z,97825.28
2023-05-01T07:06:19.479Z,97815.75
2023-05-01T07:08:46.193Z,97824.97
2023-05-01T07:11:12.917Z,97813.81
2023-05-01T07:13:39.704Z,97814.41
2023-05-01T07:16:07.177Z,97818.63
2023-05-01T07:18:34.780Z,97820.88
2023-05-01T07:21:01.553Z,97814.53
2023-05-01T07:23:28.315Z,97816.56
2023-05-01T07:25:57.988Z,97813.72
2023-05-01T07:28:25.781Z,97817.69
2023-05-01T07:30:52.581Z,97809.03
2023-05-01T07:33:19.310Z,97813.16
2023-05-01T07:35:46.453Z,97817.13
2023-05-01T07:38:14.082Z,97802.66
2023-05-01T07:40:41.027Z,97815.94
2023-05-01T07:43:11.218Z,97815.13
2023-05-01T07:45:38.969Z,97810.44
2023-05-01T07:48:06.517Z,97807.72
2023-05-01T07:50:33.338Z,97800.41
2023-05-01T07:53:00.185Z,97804.78
2023-05-01T07:55:26.909Z,97802.34
2023-05-01T07:57:53.581Z,97801.56
2023-05-01T08:00:20.907Z,97809.81
2023-05-01T08:02:48.382Z,97793.94
2023-05-01T08:05:15.168Z,97805.84
2023-05-01T08:07:41.853Z,97801.66
2023-05-01T08:10:08.880Z,97799.28
2023-05-01T08:12:35.609Z,97795.28
2023-05-01T08:15:02.347Z,97800.03
2023-05-01T08:17:29.095Z,97800.88
2023-05-01T08:19:56.867Z,97796.53
2023-05-01T08:22:24.045Z,97800.09
2023-05-01T08:24:51.516Z,97794.94
2023-05-01T08:27:19.165Z,97795.53
2023-05-01T08:29:45.977Z,97787.75
2023-05-01T08:32:12.701Z,97778.84
2023-05-01T08:34:39.387Z,97786.53
2023-05-01T08:37:06.172Z,97780.25
2023-05-01T08:39:32.849Z,97787.94
2023-05-01T08:41:59.812Z,97778.97
2023-05-01T08:44:26.861Z,97785.09
2023-05-01T08:47:08.294Z,97783.44
2023-05-01T08:49:37.738Z,97781.38
2023-05-01T08:52:06.657Z,97779.81
2023-05-01T08:54:34.655Z,97786.34
2023-05-01T08:57:03.739Z,97782.72
2023-05-01T08:59:35.150Z,97785.00
2023-05-01T09:02:05.829Z,97779.44
2023-05-01T09:04:35.482Z,97778.63
2023-05-01T09:07:02.213Z,97777.16
2023-05-01T09:09:30.217Z,97778.66
2023-05-01T09:12:05.189Z,97780.66
2023-05-01T09:14:33.090Z,97774.94
2023-05-01T09:16:59.909Z,97783.00
2023-05-01T09:19:27.225Z,97777.41
2023-05-01T09:21:55.242Z,97788.00
2023-05-01T09:24:25.642Z,97777.47
2023-05-01T09:26:52.593Z,97773.03
2023-05-01T09:29:37.802Z,97770.66
2023-05-01T09:32:28.354Z,97779.81
2023-05-01T09:35:09.410Z,97779.25
2023-05-01T09:37:36.144Z,97778.28
2023-05-01T09:40:10.646Z,97780.81
2023-05-01T09:42:54.954Z,97779.94
2023-05-01T09:45:23.510Z,97778.00
2023-05-01T09:47:50.444Z,97777.59
2023-05-01T09:50:29.659Z,97783.66
2023-05-01T09:52:56.357Z,97776.31
2023-05-01T09:55:25.555Z,97775.72
2023-05-01T09:57:53.010Z,97771.66
2023-05-01T10:00:22.250Z,97771.00
2023-05-01T10:02:50.187Z,97768.03
2023-05-01T10:05:18.439Z,97765.50
2023-05-01T10:07:59.373Z,97766.75
2023-05-01T10:10:26.303Z,97758.44
2023-05-01T10:12:53.153Z,97763.25
2023-05-01T10:15:26.110Z,97758.38
2023-05-01T10:17:54.755Z,97754.56
2023-05-01T10:20:22.159Z,97753.50
2023-05-01T10:22:49.190Z,97756.78
2023-05-01T10:25:18.204Z,97759.78
2023-05-01T10:27:45.214Z,97761.47
2023-05-01T10:30:12.775Z,97757.25
2023-05-01T10:32:41.885Z,97757.25
2023-05-01T10:35:19.648Z,97747.47
2023-05-01T10:37:58.565Z,97754.22
2023-05-01T10:40:43.549Z,97755.56
2023-05-01T10:43:28.608Z,97752.50
2023-05-01T10:46:21.052Z,97751.97
2023-05-01T10:48:47.773Z,97744.28
2023-05-01T10:51:15.597Z,97736.63
2023-05-01T10:53:43.308Z,97738.09
2023-05-01T10:56:32.949Z,97731.38
2023-05-01T10:59:04.504Z,97720.06
2023-05-01T11:01:40.032Z,97727.50
2023-05-01T11:04:22.001Z,97715.53
2023-05-01T11:07:10.901Z,97713.66
2023-05-01T11:09:43.000Z,97710.44
2023-05-01T11:12:11.729Z,97708.44
2023-05-01T11:15:07.828Z,97699.34
2023-05-01T11:17:43.960Z,97705.97
2023-05-01T11:20:13.156Z,97703.94
2023-05-01T11:22:47.268Z,97697.66
2023-05-01T11:25:28.065Z,97689.69
2023-05-01T11:27:56.326Z,97682.38
2023-05-01T11:30:23.129Z,97686.56
2023-05-01T11:32:51.200Z,97678.75
2023-05-01T11:35:23.492Z,97671.06
2023-05-01T11:37:56.898Z,97668.59
2023-05-01T11:40:25.168Z,97664.63
2023-05-01T11:43:01.469Z,97674.28
2023-05-01T11:45:28.551Z,97659.19
2023-05-01T11:47:55.403Z,97666.94
2023-05-01T11:50:22.275Z,97659.56
2023-05-01T11:52:54.470Z,97652.69
2023-05-01T11:55:21.613Z,97657.03
2023-05-01T11:57:53.261Z,97652.47
2023-05-01T12:00:31.685Z,97646.78
2023-05-01T12:03:03.830Z,97657.84
2023-05-01T12:05:35.480Z,97652.59
2023-05-01T12:08:18.817Z,97654.78
2023-05-01T12:10:56.240Z,97647.91
2023-05-01T12:13:24.674Z,97651.50
2023-05-01T12:15:53.794Z,97651.44
2023-05-01T12:18:23.943Z,97642.78
2023-05-01T12:20:53.080Z,97649.00
2023-05-01T12:23:30.484Z,97637.34
2023-05-01T12:25:57.513Z,97639.53
2023-05-01T12:28:25.117Z,97640.38
2023-05-01T12:30:52.088Z,97623.06
2023-05-01T12:33:20.688Z,97629.69
2023-05-01T12:35:49.309Z,97626.63
2023-05-01T12:38:16.267Z,97636.38
2023-05-01T12:40:57.700Z,97631.63
2023-05-01T12:43:33.419Z,97629.19
2023-05-01T12:46:02.142Z,97620.13
2023-05-01T12:48:30.595Z,97620.50
2023-05-01T12:50:58.423Z,97621.66
2023-05-01T12:53:27.690Z,97629.66
2023-05-01T12:55:58.889Z,97621.81
2023-05-01T12:58:37.061Z,97617.44
2023-05-01T13:01:04.428Z,97618.94
2023-05-01T13:03:33.791Z,97616.31
2023-05-01T13:06:03.251Z,97621.38
2023-05-01T13:08:31.802Z,97613.34
2023-05-01T13:11:09.616Z,97601.59
2023-05-01T13:13:37.570Z,97602.22
2023-05-01T13:16:12.830Z,97599.44
2023-05-01T13:18:52.084Z,97596.78
2023-05-01T13:21:21.650Z,97587.16
2023-05-01T13:23:59.903Z,97588.41
2023-05-01T13:26:29.066Z,97575.72
2023-05-01T13:28:55.785Z,97579.66
2023-05-01T13:31:22.676Z,97571.78
2023-05-01T13:33:54.108Z,97575.75
2023-05-01T13:36:26.817Z,97576.91
2023-05-01T13:38:57.044Z,97567.38
2023-05-01T13:41:25.959Z,97570.16
2023-05-01T13:43:54.787Z,97564.38
2023-05-01T13:46:23.360Z,97569.88
2023-05-01T13:48:50.625Z,97566.72
2023-05-01T13:51:22.568Z,97561.94
2023-05-01T13:53:49.621Z,97564.53
2023-05-01T13:56:17.829Z,97558.78
2023-05-01T13:58:44.864Z,97554.00
2023-05-01T14:01:15.938Z,97546.75
2023-05-01T14:03:43.462Z,97551.88
2023-05-01T14:06:17.916Z,97543.56
2023-05-01T14:08:46.991Z,97549.63
2023-05-01T14:11:14.504Z,97543.75
2023-05-01T14:13:42.797Z,97533.06
2023-05-01T14:16:11.937Z,97540.03
2023-05-01T14:18:46.000Z,97532.75
2023-05-01T14:21:14.809Z,97527.91
2023-05-01T14:23:44.497Z,97533.81
2023-05-01T14:26:16.922Z,97524.69
2023-05-01T14:28:46.196Z,97529.53
2023-05-01T14:31:17.124Z,97531.97
2023-05-01T14:33:44.138Z,97529.72
2023-05-01T14:36:12.523Z,97522.06
2023-05-01T14:38:40.466Z,97521.50
2023-05-01T14:41:09.342Z,97528.84
2023-05-01T14:43:41.500Z,97517.72
2023-05-01T14:46:08.512Z,97518.13
2023-05-01T14:48:36.932Z,97521.81
2023-05-01T14:51:10.601Z,97519.84
2023-05-01T14:53:40.151Z,97518.38
2023-05-01T14:56:07.360Z,97514.69
2023-05-01T14:58:34.018Z,97513.91
2023-05-01T15:01:02.074Z,97516.03
2023-05-01T15:03:29.464Z,97512.75
2023-05-01T15:05:57.456Z,97521.06
2023-05-01T15:08:24.502Z,97511.44
2023-05-01T15:10:54.155Z,97513.91
2023-05-01T15:13:21.292Z,97511.22
2023-05-01T15:15:48.196Z,97514.66
2023-05-01T15:18:15.078Z,97509.56
2023-05-01T15:20:41.844Z,97504.41
2023-05-01T15:23:08.673Z,97506.91
2023-05-01T15:25:35.624Z,97499.94
2023-05-01T15:28:03.521Z,97498.31
2023-05-01T15:30:30.325Z,97499.19
2023-05-01T15:32:57.304Z,97498.28
2023-05-01T15:35:24.218Z,97498.28
2023-05-01T15:37:51.319Z,97491.75
2023-05-01T15:40:18.150Z,97493.69
2023-05-01T15:42:45.588Z,97484.06
2023-05-01T15:45:12.276Z,97493.94
2023-05-01T15:47:38.932Z,97496.22
2023-05-01T15:50:10.974Z,97491.44
2023-05-01T15:52:38.329Z,97490.44
2023-05-01T15:55:05.765Z,97487.19
2023-05-01T15:57:34.624Z,97489.16
2023-05-01T16:00:01.824Z,97489.72
2023-05-01T16:02:32.743Z,97479.41
2023-05-01T16:05:00.081Z,97485.16
2023-05-01T16:07:29.141Z,97481.59
2023-05-01T16:09:56.794Z,97480.09
2023-05-01T16:12:23.854Z,97489.34
2023-05-01T16:14:51.396Z,97482.38
2023-05-01T16:17:20.128Z,97483.88
2023-05-01T16:19:48.109Z,97482.34
2023-05-01T16:22:15.531Z,97483.88
2023-05-01T16:24:42.445Z,97480.88
2023-05-01T16:27:13.380Z,97480.53
2023-05-01T16:29:41.114Z,97474.69
2023-05-01T16:32:11.391Z,97474.84
2023-05-01T16:34:40.285Z,97476.88
2023-05-01T16:37:07.562Z,97472.56
2023-05-01T16:39:38.477Z,97472.94
2023-05-01T16:42:05.221Z,97469.00
2023-05-01T16:44:35.992Z,97472.41
2023-05-01T16:47:03.655Z,97472.09
2023-05-01T16:49:30.998Z,97475.91
2023-05-01T16:51:58.840Z,97474.00
2023-05-01T16:54:35.516Z,97476.53
2023-05-01T16:57:03.578Z,97482.22
2023-05-01T16:59:30.879Z,97478.63
2023-05-01T17:01:57.688Z,97476.44
2023-05-01T17:04:25.490Z,97473.16
2023-05-01T17:06:52.503Z,97474.41
2023-05-01T17:09:19.270Z,97476.31
2023-05-01T17:11:56.951Z,97482.84
2023-05-01T17:14:23.905Z,97477.53
2023-05-01T17:16:51.866Z,97478.91
2023-05-01T17:19:18.656Z,97484.13
2023-05-01T17:21:46.070Z,97476.53
2023-05-01T17:24:14.090Z,97478.09
2023-05-01T17:26:40.936Z,97477.91
2023-05-01T17:29:08.337Z,97475.03
2023-05-01T17:31:35.978Z,97483.91
2023-05-01T17:34:03.745Z,97475.44
2023-05-01T17:36:30.565Z,97476.88
2023-05-01T17:39:00.203Z,97481.25
2023-05-01T17:41:28.274Z,97478.38
2023-05-01T17:43:56.128Z,97489.41
2023-05-01T17:46:23.928Z,97490.22
2023-05-01T17:48:52.050Z,97492.94
2023-05-01T17:51:23.085Z,97494.16
2023-05-01T17:53:51.381Z,97498.44
2023-05-01T17:56:19.656Z,97497.50
2023-05-01T17:58:46.963Z,97491.59
2023-05-01T18:01:17.077Z,97501.72
2023-05-01T18:03:46.906Z,97498.75
2023-05-01T18:06:14.469Z,97499.25
2023-05-01T18:08:43.760Z,97499.44
2023-05-01T18:11:12.375Z,97502.28
2023-05-01T18:13:40.611Z,97502.50
2023-05-01T18:16:12.936Z,97505.69
2023-05-01T18:18:42.191Z,97510.19
2023-05-01T18:21:10.272Z,97501.44
2023-05-01T18:23:39.901Z,97511.69
2023-05-01T18:26:06.972Z,97511.72
2023-05-01T18:28:34.612Z,97509.22
2023-05-01T18:31:04.862Z,97511.56
2023-05-01T18:33:34.114Z,97511.41
2023-05-01T18:36:06.027Z,97518.19
2023-05-01T18:38:40.534Z,97519.84
2023-05-01T18:41:13.066Z,97517.38
2023-05-01T18:43:42.133Z,97519.69
2023-05-01T18:46:13.890Z,97523.19
2023-05-01T18:48:44.527Z,97523.34
2023-05-01T18:51:17.634Z,97531.59
2023-05-01T18:53:48.855Z,97528.94
2023-05-01T18:56:16.881Z,97539.84
2023-05-01T18:58:46.714Z,97532.25
2023-05-01T19:01:18.499Z,97530.28
2023-05-01T19:03:47.749Z,97530.94
2023-05-01T19:06:15.397Z,97529.75
2023-05-01T19:08:44.220Z,97532.91
2023-05-01T19:11:12.461Z,97529.59
2023-05-01T19:13:40.457Z,97534.41
2023-05-01T19:16:08.199Z,97537.53
2023-05-01T19:18:37.525Z,97529.91
2023-05-01T19:21:05.440Z,97534.72
2023-05-01T19:23:35.749Z,97529.25
2023-05-01T19:26:06.140Z,97537.34
2023-05-01T19:28:36.038Z,97539.53
2023-05-01T19:31:05.655Z,97540.84
2023-05-01T19:33:34.842Z,97541.50
2023-05-01T19:36:02.502Z,97540.53
2023-05-01T19:38:29.699Z,97552.59
2023-05-01T19:40:56.880Z,97546.81
2023-05-01T19:43:24.097Z,97548.13
2023-05-01T19:45:53.853Z,97544.66
2023-05-01T19:48:21.947Z,97548.13
2023-05-01T19:50:51.785Z,97538.56
2023-05-01T19:53:20.914Z,97543.00
2023-05-01T19:55:49.587Z,97542.19
2023-05-01T19:58:16.346Z,97543.19
2023-05-01T20:00:43.017Z,97543.84
2023-05-01T20:03:11.312Z,97544.50
2023-05-01T20:05:39.532Z,97542.34
2023-05-01T20:08:06.806Z,97536.25
2023-05-01T20:10:33.525Z,97541.69
2023-05-01T20:13:01.157Z,97543.19
2023-05-01T20:15:28.266Z,97536.91
2023-05-01T20:17:55.562Z,97536.91
2023-05-01T20:20:22.281Z,97532.28
2023-05-01T20:22:52.161Z,97532.59
2023-05-01T20:25:18.934Z,97529.63
2023-05-01T20:27:46.808Z,97529.97
2023-05-01T20:30:13.666Z,97528.81
2023-05-01T20:32:43.991Z,97529.28
2023-05-01T20:35:11.678Z,97532.94
2023-05-01T20:37:41.945Z,97540.34
2023-05-01T20:40:11.728Z,97535.38
2023-05-01T20:42:38.397Z,97532.41
2023-05-01T20:45:06.509Z,97538.25
2023-05-01T20:47:33.567Z,97539.22
2023-05-01T20:50:00.851Z,97534.38
2023-05-01T20:52:27.875Z,97530.91
2023-05-01T20:54:54.743Z,97541.50
2023-05-01T20:57:21.620Z,97542.84
2023-05-01T20:59:50.367Z,97534.25
2023-05-01T21:02:17.605Z,97544.47
2023-05-01T21:04:46.336Z,97546.44
2023-05-01T21:07:13.090Z,97538.84
2023-05-01T21:09:48.381Z,97545.63
2023-05-01T21:12:16.105Z,97545.63
2023-05-01T21:14:43.933Z,97544.81
2023-05-01T21:17:11.205Z,97545.63
2023-05-01T21:19:46.586Z,97543.47
2023-05-01T21:22:20.307Z,97539.16
2023-05-01T21:24:55.986Z,97541.31
2023-05-01T21:27:24.363Z,97545.47
2023-05-01T21:29:58.983Z,97547.09
2023-05-01T21:32:32.924Z,97552.56
2023-05-01T21:35:00.718Z,97552.38
2023-05-01T21:37:29.142Z,97543.13
2023-05-01T21:39:59.554Z,97540.28
2023-05-01T21:42:31.662Z,97552.84
2023-05-01T21:44:59.569Z,97546.41
2023-05-01T21:47:27.956Z,97555.63
2023-05-01T21:49:58.421Z,97554.47
2023-05-01T21:52:25.446Z,97552.50
2023-05-01T21:54:52.361Z,97554.66
2023-05-01T21:57:19.059Z,97554.47
2023-05-01T21:59:47.716Z,97555.78
2023-05-01T22:02:14.393Z,97555.91
2023-05-01T22:04:41.190Z,97553.94
2023-05-01T22:07:07.912Z,97561.19
2023-05-01T22:09:34.605Z,97558.50
2023-05-01T22:12:01.532Z,97556.34
2023-05-01T22:14:36.607Z,97553.06
2023-05-01T22:17:10.842Z,97562.28
2023-05-01T22:19:37.946Z,97557.94
2023-05-01T22:22:04.699Z,97551.38
2023-05-01T22:24:31.683Z,97560.13
2023-05-01T22:26:58.351Z,97554.50
2023-05-01T22:29:25.039Z,97561.06
2023-05-01T22:31:51.974Z,97556.13
2023-05-01T22:34:18.851Z,97561.06
2023-05-01T22:36:45.831Z,97553.28
2023-05-01T22:39:12.499Z,97560.19
2023-05-01T22:41:39.158Z,97558.00
2023-05-01T22:44:06.428Z,97563.97
2023-05-01T22:46:33.229Z,97570.72
2023-05-01T22:49:03.191Z,97559.69
2023-05-01T22:51:30.366Z,97550.09
2023-05-01T22:53:57.836Z,97560.31
2023-05-01T22:56:27.032Z,97549.94
2023-05-01T22:58:55.262Z,97547.44
2023-05-01T23:01:23.247Z,97552.78
2023-05-01T23:03:50.836Z,97544.13
2023-05-01T23:06:20.764Z,97551.34
2023-05-01T23:08:51.095Z,97547.22
2023-05-01T23:11:18.880Z,97545.75
2023-05-01T23:13:47.970Z,97550.34
2023-05-01T23:16:18.476Z,97548.03
2023-05-01T23:18:45.715Z,97545.41
2023-05-01T23:21:17.490Z,97539.81
2023-05-01T23:23:45.483Z,97543.44
2023-05-01T23:26:25.055Z,97542.41
2023-05-01T23:28:52.988Z,97537.81
2023-05-01T23:31:27.062Z,97535.16
2023-05-01T23:33:54.882Z,97542.34
2023-05-01T23:36:22.101Z,97541.16
2023-05-01T23:38:48.864Z,97539.66
2023-05-01T23:41:16.140Z,97534.50
2023-05-01T23:43:43.755Z,97541.28
2023-05-01T23:46:10.485Z,97534.38
2023-05-01T23:48:39.956Z,97538.97
2023-05-01T23:51:06.995Z,97538.22
2023-05-01T23:53:33.790Z,97531.97
2023-05-01T23:56:00.403Z,97530.31
2023-05-01T23:58:27.125Z,97534.25
